createdAt,value
2019-01-04T00:01:28.817Z,9.80
2019-01-04T00:03:58.741Z,10.33
2019-01-04T00:06:28.258Z,9.73
2019-01-04T00:08:57.945Z,9.83
2019-01-04T00:11:27.528Z,10.40
2019-01-04T00:13:57.028Z,10.40
2019-01-04T00:16:29.008Z,9.90
2019-01-04T00:18:58.642Z,11.43
2019-01-04T00:21:28.234Z,10.63
2019-01-04T00:23:57.879Z,10.03
2019-01-04T00:26:27.300Z,11.13
2019-01-04T00:28:56.835Z,11.27
2019-01-04T00:31:26.447Z,10.80
2019-01-04T00:33:56.003Z,10.90
2019-01-04T00:36:25.563Z,11.53
2019-01-04T00:38:55.069Z,10.53
2019-01-04T00:41:24.661Z,11.43
2019-01-04T00:43:54.114Z,11.43
2019-01-04T00:46:23.686Z,11.10
2019-01-04T00:48:53.298Z,11.10
2019-01-04T00:51:22.781Z,10.90
2019-01-04T00:53:52.462Z,10.47
2019-01-04T00:57:00.217Z,11.37
2019-01-04T00:59:55.414Z,10.87
2019-01-04T01:03:04.398Z,10.10
2019-01-04T01:06:36.041Z,10.50
2019-01-04T01:09:30.439Z,11.00
2019-01-04T01:12:25.212Z,9.83
2019-01-04T01:15:27.443Z,10.13
2019-01-04T01:18:39.023Z,10.43
2019-01-04T01:21:45.379Z,10.90
2019-01-04T01:24:48.278Z,10.63
2019-01-04T01:28:11.137Z,11.53
2019-01-04T01:31:20.983Z,11.00
2019-01-04T01:34:26.168Z,11.50
2019-01-04T01:37:31.155Z,11.70
2019-01-04T01:40:37.462Z,10.70
2019-01-04T01:43:58.345Z,11.27
2019-01-04T01:46:38.581Z,10.93
2019-01-04T01:49:44.867Z,10.77
2019-01-04T01:52:18.486Z,9.87
2019-01-04T01:54:48.007Z,10.33
2019-01-04T01:57:17.404Z,10.33
2019-01-04T01:59:46.779Z,10.93
2019-01-04T02:02:16.282Z,11.07
2019-01-04T02:04:45.729Z,10.73
2019-01-04T02:07:15.165Z,10.10
2019-01-04T02:09:44.601Z,9.20
2019-01-04T02:12:13.967Z,9.33
2019-01-04T02:14:44.557Z,9.53
2019-01-04T02:17:14.414Z,9.27
2019-01-04T02:19:43.896Z,10.27
2019-01-04T02:22:13.330Z,10.17
2019-01-04T02:24:42.747Z,9.43
2019-01-04T02:27:14.267Z,9.40
2019-01-04T02:29:43.624Z,9.03
2019-01-04T02:32:13.100Z,9.33
2019-01-04T02:34:42.434Z,9.67
2019-01-04T02:37:11.850Z,9.63
2019-01-04T02:39:41.271Z,9.07
2019-01-04T02:42:10.721Z,8.97
2019-01-04T02:44:40.211Z,9.33
2019-01-04T02:47:09.619Z,8.30
2019-01-04T02:49:39.812Z,7.87
2019-01-04T02:52:09.281Z,9.10
2019-01-04T02:54:38.722Z,9.40
2019-01-04T02:57:08.206Z,9.03
2019-01-04T02:59:37.612Z,8.13
2019-01-04T03:02:09.029Z,8.73
2019-01-04T03:04:38.487Z,8.03
2019-01-04T03:07:07.945Z,8.00
2019-01-04T03:09:37.415Z,8.70
2019-01-04T03:12:06.919Z,8.57
2019-01-04T03:14:36.385Z,8.10
2019-01-04T03:17:05.871Z,8.83
2019-01-04T03:19:35.259Z,8.30
2019-01-04T03:22:04.811Z,8.07
2019-01-04T03:24:34.269Z,7.67
2019-01-04T03:27:03.663Z,7.37
2019-01-04T03:29:33.149Z,7.70
2019-01-04T03:32:02.552Z,8.03
2019-01-04T03:34:32.056Z,7.13
2019-01-04T03:37:01.515Z,7.00
2019-01-04T03:39:30.973Z,6.80
2019-01-04T03:42:00.327Z,6.00
2019-01-04T03:44:29.795Z,6.33
2019-01-04T03:46:59.236Z,5.93
2019-01-04T03:49:28.644Z,5.80
2019-01-04T03:51:58.090Z,5.40
2019-01-04T03:54:27.509Z,5.30
2019-01-04T03:56:57.029Z,4.43
2019-01-04T03:59:26.365Z,4.50
2019-01-04T04:01:55.791Z,4.67
2019-01-04T04:04:25.246Z,4.70
2019-01-04T04:06:54.699Z,4.27
2019-01-04T04:09:24.154Z,4.50
2019-01-04T04:11:53.832Z,4.40
2019-01-04T04:14:23.302Z,4.60
2019-01-04T04:16:52.750Z,4.30
2019-01-04T04:19:22.128Z,3.77
2019-01-04T04:21:51.549Z,4.00
2019-01-04T04:24:20.996Z,3.80
2019-01-04T04:26:52.726Z,4.30
2019-01-04T04:29:22.269Z,3.80
2019-01-04T04:31:51.720Z,3.60
2019-01-04T04:34:21.167Z,3.17
2019-01-04T04:36:50.667Z,3.37
2019-01-04T04:39:20.128Z,3.50
2019-01-04T04:41:49.610Z,3.63
2019-01-04T04:44:19.098Z,3.90
2019-01-04T04:46:48.676Z,3.80
2019-01-04T04:49:18.123Z,4.07
2019-01-04T04:51:48.528Z,3.13
2019-01-04T04:54:17.969Z,3.27
2019-01-04T04:56:47.370Z,3.57
2019-01-04T04:59:16.873Z,3.43
2019-01-04T05:01:46.250Z,3.20
2019-01-04T05:04:15.708Z,4.17
2019-01-04T05:06:45.272Z,3.60
2019-01-04T05:09:14.895Z,2.97
2019-01-04T05:11:44.377Z,3.07
2019-01-04T05:14:13.890Z,3.17
2019-01-04T05:16:43.334Z,3.03
2019-01-04T05:19:13.040Z,3.10
2019-01-04T05:21:42.562Z,3.10
2019-01-04T05:24:11.952Z,3.17
2019-01-04T05:26:41.431Z,3.23
2019-01-04T05:29:10.970Z,3.20
2019-01-04T05:31:40.408Z,2.63
2019-01-04T05:34:09.801Z,2.70
2019-01-04T05:36:39.336Z,2.63
2019-01-04T05:39:09.040Z,2.60
2019-01-04T05:41:38.389Z,2.53
2019-01-04T05:44:07.822Z,2.57
2019-01-04T05:46:37.255Z,2.27
2019-01-04T05:49:06.727Z,2.60
2019-01-04T05:51:36.221Z,2.27
2019-01-04T05:54:05.646Z,2.33
2019-01-04T05:56:35.166Z,2.57
2019-01-04T05:59:04.584Z,2.30
2019-01-04T06:01:33.930Z,2.50
2019-01-04T06:04:03.492Z,2.20
2019-01-04T06:06:32.998Z,2.03
2019-01-04T06:09:02.441Z,2.20
2019-01-04T06:11:31.866Z,2.00
2019-01-04T06:14:01.423Z,2.10
2019-01-04T06:16:31.038Z,2.60
2019-01-04T06:19:00.449Z,2.40
2019-01-04T06:21:29.961Z,2.50
2019-01-04T06:23:59.410Z,2.33
2019-01-04T06:26:28.861Z,2.60
2019-01-04T06:28:58.301Z,2.70
2019-01-04T06:31:28.946Z,3.03
2019-01-04T06:33:58.411Z,2.90
2019-01-04T06:36:27.950Z,2.60
2019-01-04T06:38:57.365Z,2.83
2019-01-04T06:41:28.122Z,2.90
2019-01-04T06:43:57.665Z,2.60
2019-01-04T06:46:27.503Z,2.70
2019-01-04T06:48:57.000Z,2.83
2019-01-04T06:51:27.978Z,3.03
2019-01-04T06:53:57.463Z,3.43
2019-01-04T06:56:26.850Z,3.20
2019-01-04T06:58:57.155Z,3.90
2019-01-04T07:01:26.617Z,3.20
2019-01-04T07:03:56.478Z,3.43
2019-01-04T07:06:26.206Z,3.33
2019-01-04T07:08:55.699Z,4.00
2019-01-04T07:11:25.061Z,4.30
2019-01-04T07:13:55.775Z,4.07
2019-01-04T07:16:25.378Z,4.30
2019-01-04T07:18:54.801Z,3.60
2019-01-04T07:21:24.184Z,4.03
2019-01-04T07:23:53.638Z,3.77
2019-01-04T07:26:23.090Z,3.83
2019-01-04T07:28:52.522Z,3.40
2019-01-04T07:31:22.035Z,4.10
2019-01-04T07:33:52.341Z,4.67
2019-01-04T07:36:21.700Z,4.93
2019-01-04T07:38:51.172Z,4.83
2019-01-04T07:41:20.613Z,6.17
2019-01-04T07:43:50.067Z,7.10
2019-01-04T07:46:19.481Z,6.97
2019-01-04T07:48:48.969Z,5.47
2019-01-04T07:51:19.483Z,5.23
2019-01-04T07:53:50.152Z,5.13
2019-01-04T07:56:19.622Z,4.63
2019-01-04T07:58:49.091Z,4.70
2019-01-04T08:01:18.647Z,4.37
2019-01-04T08:03:48.126Z,3.93
2019-01-04T08:06:17.596Z,3.70
2019-01-04T08:08:47.026Z,3.67
2019-01-04T08:11:16.446Z,4.70
2019-01-04T08:13:46.077Z,3.70
2019-01-04T08:16:15.398Z,3.50
2019-01-04T08:18:44.792Z,3.80
2019-01-04T08:21:14.256Z,4.30
2019-01-04T08:23:43.721Z,3.97
2019-01-04T08:26:13.275Z,3.93
2019-01-04T08:28:42.674Z,3.60
2019-01-04T08:31:12.128Z,3.90
2019-01-04T08:33:41.629Z,3.60
2019-01-04T08:36:11.533Z,3.73
2019-01-04T08:38:42.900Z,3.33
2019-01-04T08:41:13.361Z,3.50
2019-01-04T08:43:42.817Z,3.33
2019-01-04T08:46:12.294Z,3.20
2019-01-04T08:48:41.749Z,3.40
2019-01-04T08:51:11.284Z,3.50
2019-01-04T08:53:57.635Z,3.33
2019-01-04T08:56:28.777Z,2.90
2019-01-04T08:58:58.144Z,3.37
2019-01-04T09:01:27.610Z,2.80
2019-01-04T09:03:57.038Z,3.37
2019-01-04T09:06:26.479Z,2.43
2019-01-04T09:08:55.935Z,2.23
2019-01-04T09:11:26.607Z,2.50
2019-01-04T09:13:58.479Z,2.37
2019-01-04T09:16:30.145Z,2.33
2019-01-04T09:18:59.592Z,2.20
2019-01-04T09:21:28.987Z,2.20
2019-01-04T09:23:58.364Z,2.53
2019-01-04T09:26:27.763Z,2.10
2019-01-04T09:28:57.131Z,2.10
2019-01-04T09:31:26.515Z,2.30
2019-01-04T09:33:57.125Z,2.07
2019-01-04T09:36:26.637Z,2.00
2019-01-04T09:38:56.141Z,2.27
2019-01-04T09:41:33.783Z,2.27
2019-01-04T09:44:03.469Z,2.27
2019-01-04T09:46:32.890Z,2.20
2019-01-04T09:49:02.355Z,2.10
2019-01-04T09:51:31.824Z,2.03
2019-01-04T09:54:01.254Z,1.63
2019-01-04T09:56:30.735Z,1.70
2019-01-04T09:59:00.225Z,1.70
2019-01-04T10:01:29.700Z,1.83
2019-01-04T10:03:59.089Z,1.70
2019-01-04T10:06:29.692Z,1.60
2019-01-04T10:08:59.056Z,1.57
2019-01-04T10:11:31.800Z,1.77
2019-01-04T10:14:01.264Z,1.73
2019-01-04T10:16:30.754Z,2.10
2019-01-04T10:19:00.196Z,1.90
2019-01-04T10:21:29.705Z,2.10
2019-01-04T10:23:59.166Z,1.60
2019-01-04T10:26:28.587Z,1.47
2019-01-04T10:28:58.284Z,1.80
2019-01-04T10:31:27.733Z,1.90
2019-01-04T10:33:57.177Z,2.20
2019-01-04T10:36:27.079Z,2.20
2019-01-04T10:38:56.577Z,2.13
2019-01-04T10:41:26.025Z,2.20
2019-01-04T10:43:55.452Z,3.33
2019-01-04T10:46:24.845Z,2.70
2019-01-04T10:48:54.417Z,2.43
2019-01-04T10:51:23.770Z,1.47
2019-01-04T10:53:53.247Z,1.50
2019-01-04T10:56:22.728Z,1.70
2019-01-04T10:58:52.990Z,1.50
2019-01-04T11:01:22.450Z,1.60
2019-01-04T11:03:51.970Z,1.60
2019-01-04T11:06:21.447Z,1.50
2019-01-04T11:08:50.791Z,1.47
2019-01-04T11:11:20.537Z,1.83
2019-01-04T11:13:49.995Z,2.10
2019-01-04T11:16:19.442Z,1.80
2019-01-04T11:18:51.124Z,1.63
2019-01-04T11:21:20.599Z,1.70
2019-01-04T11:24:52.150Z,1.60
2019-01-04T11:27:55.434Z,2.03
2019-01-04T11:30:35.911Z,1.80
2019-01-04T11:33:14.806Z,1.70
2019-01-04T11:36:10.473Z,1.80
2019-01-04T11:38:53.077Z,1.60
2019-01-04T11:42:14.770Z,1.70
2019-01-04T11:45:02.009Z,2.00
2019-01-04T11:48:08.204Z,2.30
2019-01-04T11:51:17.521Z,2.47
2019-01-04T11:53:46.944Z,2.40
2019-01-04T11:56:16.340Z,2.47
2019-01-04T11:58:45.755Z,2.10
2019-01-04T12:01:16.934Z,2.80
2019-01-04T12:03:56.562Z,6.80
2019-01-04T12:06:27.261Z,4.20
2019-01-04T12:08:56.801Z,4.10
2019-01-04T12:11:26.385Z,4.57
2019-01-04T12:13:55.863Z,3.30
2019-01-04T12:16:25.395Z,2.77
2019-01-04T12:18:54.842Z,2.70
2019-01-04T12:21:24.210Z,2.50
2019-01-04T12:23:53.697Z,3.40
2019-01-04T12:26:23.168Z,3.73
2019-01-04T12:28:52.661Z,3.80
2019-01-04T12:31:22.024Z,3.20
2019-01-04T12:33:51.423Z,3.10
2019-01-04T12:36:20.860Z,3.17
2019-01-04T12:38:51.328Z,2.87
2019-01-04T12:41:20.775Z,2.67
2019-01-04T12:43:51.298Z,3.00
2019-01-04T12:46:20.728Z,2.93
2019-01-04T12:48:50.168Z,2.57
2019-01-04T12:51:19.550Z,2.57
2019-01-04T12:53:49.069Z,2.40
2019-01-04T12:56:18.876Z,3.10
2019-01-04T12:58:48.432Z,2.50
2019-01-04T13:01:17.984Z,3.47
2019-01-04T13:03:47.609Z,2.77
2019-01-04T13:06:17.994Z,3.40
2019-01-04T13:08:47.390Z,14.33
2019-01-04T13:11:16.814Z,24.00
2019-01-04T13:13:46.244Z,6.93
2019-01-04T13:16:15.624Z,3.70
2019-01-04T13:18:46.132Z,3.97
2019-01-04T13:21:16.067Z,3.53
2019-01-04T13:23:45.520Z,4.77
2019-01-04T13:26:14.902Z,3.83
2019-01-04T13:28:45.643Z,4.37
2019-01-04T13:31:15.128Z,4.63
2019-01-04T13:33:44.578Z,4.00
2019-01-04T13:36:14.005Z,5.57
2019-01-04T13:38:46.120Z,6.27
2019-01-04T13:41:15.559Z,3.90
2019-01-04T13:43:44.978Z,3.00
2019-01-04T13:46:14.367Z,4.70
2019-01-04T13:48:43.803Z,4.00
2019-01-04T13:51:13.240Z,5.70
2019-01-04T13:53:42.651Z,10.67
2019-01-04T13:56:12.003Z,6.53
2019-01-04T13:58:41.331Z,2.57
2019-01-04T14:01:10.720Z,3.60
2019-01-04T14:03:40.166Z,3.27
2019-01-04T14:06:09.673Z,2.93
2019-01-04T14:08:39.103Z,2.93
2019-01-04T14:11:08.526Z,3.03
2019-01-04T14:13:38.002Z,3.00
2019-01-04T14:16:07.451Z,2.73
2019-01-04T14:18:37.220Z,2.20
2019-01-04T14:21:06.716Z,2.60
2019-01-04T14:23:36.152Z,2.60
2019-01-04T14:26:05.571Z,2.60
2019-01-04T14:28:34.975Z,2.27
2019-01-04T14:31:04.507Z,2.60
2019-01-04T14:33:33.965Z,2.03
2019-01-04T14:36:03.432Z,2.33
2019-01-04T14:38:32.884Z,2.10
2019-01-04T14:41:02.356Z,2.70
2019-01-04T14:43:31.751Z,2.70
2019-01-04T14:46:01.172Z,2.93
2019-01-04T14:48:30.617Z,4.07
2019-01-04T14:50:59.957Z,5.80
2019-01-04T14:53:29.441Z,5.37
2019-01-04T14:55:58.856Z,4.20
2019-01-04T14:58:28.294Z,4.37
2019-01-04T15:00:57.749Z,4.27
2019-01-04T15:03:27.198Z,4.20
2019-01-04T15:05:56.688Z,4.50
2019-01-04T15:08:26.169Z,3.57
2019-01-04T15:10:55.624Z,3.60
2019-01-04T15:13:25.062Z,4.83
2019-01-04T15:15:54.494Z,5.53
2019-01-04T15:18:23.913Z,4.87
2019-01-04T15:20:53.285Z,7.50
2019-01-04T15:23:22.709Z,13.33
2019-01-04T15:25:52.216Z,16.07
2019-01-04T15:28:21.625Z,9.70
2019-01-04T15:30:51.071Z,7.83
2019-01-04T15:33:20.452Z,7.13
2019-01-04T15:35:49.844Z,5.80
2019-01-04T15:38:19.297Z,5.70
2019-01-04T15:40:48.809Z,6.73
2019-01-04T15:43:18.227Z,5.97
2019-01-04T15:45:47.650Z,6.23
2019-01-04T15:48:17.117Z,5.50
2019-01-04T15:50:46.416Z,4.77
2019-01-04T15:53:15.849Z,5.17
2019-01-04T15:55:45.298Z,5.30
2019-01-04T15:58:14.734Z,4.83
2019-01-04T16:00:44.148Z,5.03
2019-01-04T16:03:13.608Z,5.33
2019-01-04T16:05:43.068Z,5.20
2019-01-04T16:08:12.536Z,5.33
2019-01-04T16:10:42.020Z,5.03
2019-01-04T16:13:11.473Z,7.50
2019-01-04T16:15:40.907Z,9.37
2019-01-04T16:18:10.379Z,9.20
2019-01-04T16:20:39.872Z,8.40
2019-01-04T16:23:09.886Z,8.53
2019-01-04T16:25:39.209Z,7.67
2019-01-04T16:28:09.373Z,6.97
2019-01-04T16:30:38.846Z,6.37
2019-01-04T16:33:08.229Z,8.17
2019-01-04T16:35:37.710Z,8.13
2019-01-04T16:38:07.171Z,7.90
2019-01-04T16:40:36.590Z,10.77
2019-01-04T16:43:05.949Z,10.60
2019-01-04T16:45:35.351Z,8.73
2019-01-04T16:48:04.888Z,9.13
2019-01-04T16:50:34.367Z,8.67
2019-01-04T16:53:03.804Z,8.57
2019-01-04T16:55:33.241Z,8.23
2019-01-04T16:58:02.792Z,9.40
2019-01-04T17:00:32.185Z,9.33
2019-01-04T17:03:01.555Z,9.17
2019-01-04T17:05:31.051Z,11.20
2019-01-04T17:08:00.417Z,11.33
2019-01-04T17:10:29.870Z,11.00
2019-01-04T17:12:59.290Z,10.60
2019-01-04T17:15:28.812Z,10.00
2019-01-04T17:17:58.280Z,10.17
2019-01-04T17:20:28.489Z,10.43
2019-01-04T17:22:57.898Z,9.67
2019-01-04T17:25:27.235Z,10.33
2019-01-04T17:27:59.187Z,10.50
2019-01-04T17:30:28.655Z,11.23
2019-01-04T17:32:58.631Z,10.50
2019-01-04T17:35:28.096Z,10.40
2019-01-04T17:37:57.752Z,10.70
2019-01-04T17:40:27.158Z,11.57
2019-01-04T17:42:56.586Z,11.27
2019-01-04T17:45:26.016Z,11.50
2019-01-04T17:47:55.421Z,11.47
2019-01-04T17:50:24.911Z,11.57
2019-01-04T17:52:54.333Z,11.23
2019-01-04T17:55:25.565Z,11.50
2019-01-04T17:57:54.982Z,10.73
2019-01-04T18:00:24.351Z,9.70
2019-01-04T18:02:53.711Z,11.30
2019-01-04T18:05:23.358Z,11.07
2019-01-04T18:07:52.749Z,11.70
2019-01-04T18:10:22.198Z,11.37
2019-01-04T18:12:52.133Z,11.43
2019-01-04T18:15:21.549Z,13.17
2019-01-04T18:17:50.984Z,13.13
2019-01-04T18:20:20.374Z,12.97
2019-01-04T18:22:50.030Z,13.10
2019-01-04T18:25:19.434Z,13.20
2019-01-04T18:27:48.857Z,13.37
2019-01-04T18:30:18.248Z,12.50
2019-01-04T18:32:47.698Z,12.70
2019-01-04T18:35:17.168Z,13.83
2019-01-04T18:37:46.665Z,12.53
2019-01-04T18:40:16.117Z,14.00
2019-01-04T18:42:45.582Z,14.87
2019-01-04T18:45:15.023Z,14.97
2019-01-04T18:47:44.406Z,16.10
2019-01-04T18:50:15.651Z,17.33
2019-01-04T18:52:45.007Z,16.23
2019-01-04T18:55:14.487Z,17.90
2019-01-04T18:57:43.991Z,18.87
2019-01-04T19:00:13.680Z,18.50
2019-01-04T19:02:43.209Z,14.27
2019-01-04T19:05:12.730Z,12.27
2019-01-04T19:07:42.161Z,10.97
2019-01-04T19:10:11.807Z,11.00
2019-01-04T19:12:42.299Z,12.03
2019-01-04T19:15:11.870Z,12.73
2019-01-04T19:17:41.291Z,13.30
2019-01-04T19:20:10.791Z,13.33
2019-01-04T19:22:40.861Z,13.93
2019-01-04T19:25:10.368Z,14.03
2019-01-04T19:27:39.806Z,12.27
2019-01-04T19:30:10.002Z,16.30
2019-01-04T19:32:39.525Z,14.67
2019-01-04T19:35:08.964Z,13.70
2019-01-04T19:37:38.426Z,12.53
2019-01-04T19:40:08.260Z,13.60
2019-01-04T19:42:38.726Z,13.87
2019-01-04T19:45:08.488Z,18.20
2019-01-04T19:47:37.961Z,19.03
2019-01-04T19:50:17.486Z,16.17
2019-01-04T19:52:46.923Z,16.13
2019-01-04T19:55:16.335Z,15.93
2019-01-04T19:57:47.028Z,16.47
2019-01-04T20:00:17.139Z,19.20
2019-01-04T20:02:47.956Z,17.90
2019-01-04T20:05:19.324Z,17.83
2019-01-04T20:08:30.991Z,18.47
2019-01-04T20:12:13.107Z,21.00
2019-01-04T20:15:43.449Z,18.23
2019-01-04T20:18:28.673Z,18.00
2019-01-04T20:21:15.582Z,18.23
2019-01-04T20:24:09.817Z,18.00
2019-01-04T20:27:03.921Z,18.17
2019-01-04T20:30:01.188Z,16.73
2019-01-04T20:32:56.461Z,17.60
2019-01-04T20:35:50.636Z,17.67
2019-01-04T20:38:56.988Z,18.10
2019-01-04T20:41:45.366Z,16.83
2019-01-04T20:44:39.800Z,16.43
2019-01-04T20:47:23.051Z,16.87
2019-01-04T20:50:12.501Z,16.40
2019-01-04T20:53:03.611Z,16.33
2019-01-04T20:56:04.030Z,16.63
2019-01-04T20:58:52.454Z,17.47
2019-01-04T21:01:40.945Z,17.23
2019-01-04T21:04:27.869Z,18.87
2019-01-04T21:07:19.060Z,17.90
2019-01-04T21:10:00.655Z,20.13
2019-01-04T21:13:04.115Z,19.37
2019-01-04T21:15:50.742Z,21.53
2019-01-04T21:18:27.958Z,21.33
2019-01-04T21:21:19.340Z,23.87
2019-01-04T21:24:07.747Z,21.80
2019-01-04T21:26:56.106Z,27.90
2019-01-04T21:30:00.541Z,27.57
2019-01-04T21:32:48.946Z,26.53
2019-01-04T21:35:47.293Z,24.93
2019-01-04T21:38:38.454Z,22.23
2019-01-04T21:41:26.913Z,20.47
2019-01-04T21:44:21.085Z,19.40
2019-01-04T21:47:15.155Z,18.17
2019-01-04T21:50:03.721Z,19.67
2019-01-04T21:52:52.906Z,19.90
2019-01-04T21:55:39.664Z,21.63
2019-01-04T21:58:30.904Z,21.63
2019-01-04T22:01:30.868Z,20.87
2019-01-04T22:04:20.348Z,20.00
2019-01-04T22:07:17.537Z,17.23
2019-01-04T22:10:17.934Z,17.50
2019-01-04T22:13:15.153Z,16.90
2019-01-04T22:16:02.037Z,16.10
2019-01-04T22:18:56.201Z,15.67
2019-01-04T22:21:43.049Z,15.87
2019-01-04T22:24:37.328Z,15.23
2019-01-04T22:27:24.748Z,14.27
2019-01-04T22:30:31.127Z,14.33
2019-01-04T22:33:22.060Z,12.77
2019-01-04T22:36:08.866Z,13.50
2019-01-04T22:38:55.638Z,14.47
2019-01-04T22:41:44.574Z,13.80
2019-01-04T22:44:25.705Z,14.57
2019-01-04T22:47:15.212Z,14.23
2019-01-04T22:50:20.877Z,16.17
2019-01-04T22:53:17.674Z,16.67
2019-01-04T22:56:12.004Z,15.30
2019-01-04T22:58:58.090Z,12.57
2019-01-04T23:01:58.398Z,13.10
2019-01-04T23:04:45.169Z,12.60
2019-01-04T23:07:51.639Z,13.40
2019-01-04T23:10:40.111Z,12.90
2019-01-04T23:13:27.051Z,12.30
2019-01-04T23:16:21.387Z,12.97
2019-01-04T23:19:09.128Z,12.57
2019-01-04T23:22:33.082Z,13.60
2019-01-04T23:25:20.181Z,13.83
2019-01-04T23:28:11.702Z,13.17
2019-01-04T23:31:15.049Z,12.57
2019-01-04T23:34:13.899Z,13.53
2019-01-04T23:37:14.205Z,12.57
2019-01-04T23:40:08.551Z,13.17
2019-01-04T23:42:55.407Z,12.40
2019-01-04T23:45:42.262Z,11.80
2019-01-04T23:48:29.045Z,12.13
2019-01-04T23:51:09.273Z,11.90
2019-01-04T23:54:04.774Z,12.83
2019-01-04T23:56:51.771Z,13.50
2019-01-04T23:59:43.031Z,12.87
